createdAt,value
2022-11-05T00:00:35.649Z,100.00
2022-11-05T00:03:20.878Z,100.00
2022-11-05T00:06:09.498Z,100.00
2022-11-05T00:08:54.747Z,100.00
2022-11-05T00:11:41.318Z,100.00
2022-11-05T00:14:26.196Z,100.00
2022-11-05T00:16:52.776Z,100.00
2022-11-05T00:19:19.317Z,100.00
2022-11-05T00:22:08.845Z,100.00
2022-11-05T00:24:53.639Z,100.00
2022-11-05T00:27:20.127Z,100.00
2022-11-05T00:29:46.569Z,100.00
2022-11-05T00:32:13.078Z,100.00
2022-11-05T00:34:39.501Z,100.00
2022-11-05T00:37:06.018Z,100.00
2022-11-05T00:39:32.477Z,100.00
2022-11-05T00:42:17.715Z,100.00
2022-11-05T00:45:00.826Z,100.00
2022-11-05T00:47:45.998Z,100.00
2022-11-05T00:50:12.962Z,100.00
2022-11-05T00:52:57.809Z,100.00
2022-11-05T00:55:25.982Z,100.00
2022-11-05T00:57:52.505Z,100.00
2022-11-05T01:00:19.071Z,100.00
2022-11-05T01:02:46.533Z,100.00
2022-11-05T01:05:13.942Z,100.00
2022-11-05T01:07:40.969Z,100.00
2022-11-05T01:10:08.128Z,100.00
2022-11-05T01:12:34.704Z,100.00
2022-11-05T01:15:01.454Z,100.00
2022-11-05T01:17:27.949Z,100.00
2022-11-05T01:19:54.381Z,100.00
2022-11-05T01:22:20.944Z,100.00
2022-11-05T01:24:47.372Z,100.00
2022-11-05T01:27:13.918Z,100.00
2022-11-05T01:29:40.406Z,100.00
2022-11-05T01:32:06.894Z,100.00
2022-11-05T01:34:33.445Z,100.00
2022-11-05T01:36:59.993Z,100.00
2022-11-05T01:39:26.450Z,100.00
2022-11-05T01:41:52.888Z,100.00
2022-11-05T01:44:38.197Z,100.00
2022-11-05T01:47:04.599Z,100.00
2022-11-05T01:49:33.987Z,100.00
2022-11-05T01:52:03.015Z,100.00
2022-11-05T01:54:32.042Z,100.00
2022-11-05T01:57:08.013Z,100.00
2022-11-05T01:59:36.310Z,100.00
2022-11-05T02:02:03.687Z,100.00
2022-11-05T02:04:31.931Z,100.00
2022-11-05T02:06:59.194Z,100.00
2022-11-05T02:09:30.148Z,100.00
2022-11-05T02:11:57.109Z,100.00
2022-11-05T02:14:23.601Z,100.00
2022-11-05T02:16:58.273Z,100.00
2022-11-05T02:19:39.038Z,100.00
2022-11-05T02:22:05.496Z,100.00
2022-11-05T02:25:04.154Z,100.00
2022-11-05T02:27:36.488Z,100.00
2022-11-05T02:30:21.831Z,100.00
2022-11-05T02:33:03.529Z,100.00
2022-11-05T02:35:45.265Z,100.00
2022-11-05T02:38:16.751Z,100.00
2022-11-05T02:40:43.134Z,100.00
2022-11-05T02:43:14.972Z,100.00
2022-11-05T02:45:59.808Z,100.00
2022-11-05T02:48:29.541Z,100.00
2022-11-05T02:51:00.186Z,100.00
2022-11-05T02:53:45.379Z,100.00
2022-11-05T02:56:21.254Z,100.00
2022-11-05T02:58:48.119Z,100.00
2022-11-05T03:01:14.573Z,100.00
2022-11-05T03:03:43.320Z,100.00
2022-11-05T03:06:28.612Z,100.00
2022-11-05T03:08:57.894Z,100.00
2022-11-05T03:11:26.856Z,100.00
2022-11-05T03:13:56.319Z,100.00
2022-11-05T03:16:29.764Z,100.00
2022-11-05T03:19:04.525Z,100.00
2022-11-05T03:21:48.808Z,100.00
2022-11-05T03:24:21.213Z,100.00
2022-11-05T03:26:51.586Z,100.00
2022-11-05T03:29:22.097Z,100.00
2022-11-05T03:31:49.966Z,100.00
2022-11-05T03:34:18.492Z,100.00
2022-11-05T03:36:47.087Z,100.00
2022-11-05T03:39:16.037Z,100.00
2022-11-05T03:41:44.464Z,100.00
2022-11-05T03:44:13.152Z,100.00
2022-11-05T03:46:45.180Z,100.00
2022-11-05T03:49:15.511Z,100.00
2022-11-05T03:51:45.973Z,100.00
2022-11-05T03:54:12.832Z,100.00
2022-11-05T03:56:44.501Z,100.00
2022-11-05T03:59:11.559Z,100.00
2022-11-05T04:01:39.087Z,100.00
2022-11-05T04:04:06.516Z,100.00
2022-11-05T04:06:51.448Z,100.00
2022-11-05T04:09:36.502Z,100.00
2022-11-05T04:12:21.500Z,100.00
2022-11-05T04:14:48.044Z,100.00
2022-11-05T04:17:14.620Z,100.00
2022-11-05T04:20:00.729Z,100.00
2022-11-05T04:22:46.920Z,100.00
2022-11-05T04:25:14.255Z,100.00
2022-11-05T04:27:40.692Z,100.00
2022-11-05T04:30:20.038Z,100.00
2022-11-05T04:32:56.390Z,100.00
2022-11-05T04:35:23.166Z,100.00
2022-11-05T04:37:49.652Z,100.00
2022-11-05T04:40:16.117Z,100.00
2022-11-05T04:42:42.540Z,100.00
2022-11-05T04:45:08.938Z,100.00
2022-11-05T04:47:35.400Z,100.00
2022-11-05T04:50:02.082Z,100.00
2022-11-05T04:52:28.810Z,100.00
2022-11-05T04:54:55.270Z,100.00
2022-11-05T04:57:21.682Z,100.00
2022-11-05T04:59:48.479Z,100.00
2022-11-05T05:02:15.013Z,100.00
2022-11-05T05:04:41.488Z,100.00
2022-11-05T05:07:07.942Z,100.00
2022-11-05T05:09:34.363Z,100.00
2022-11-05T05:12:02.531Z,100.00
2022-11-05T05:14:29.078Z,100.00
2022-11-05T05:16:55.501Z,100.00
2022-11-05T05:19:23.632Z,100.00
2022-11-05T05:21:50.136Z,100.00
2022-11-05T05:24:18.623Z,100.00
2022-11-05T05:26:46.429Z,100.00
2022-11-05T05:29:13.502Z,100.00
2022-11-05T05:31:40.102Z,100.00
2022-11-05T05:34:06.993Z,100.00
2022-11-05T05:36:33.590Z,100.00
2022-11-05T05:39:00.057Z,100.00
2022-11-05T05:41:27.453Z,100.00
2022-11-05T05:43:54.055Z,100.00
2022-11-05T05:46:20.479Z,100.00
2022-11-05T05:48:50.381Z,100.00
2022-11-05T05:51:17.242Z,100.00
2022-11-05T05:53:43.833Z,100.00
2022-11-05T05:56:10.832Z,100.00
2022-11-05T05:58:38.782Z,100.00
2022-11-05T06:01:06.660Z,100.00
2022-11-05T06:03:33.133Z,100.00
2022-11-05T06:06:00.481Z,100.00
2022-11-05T06:08:27.059Z,100.00
2022-11-05T06:10:53.596Z,100.00
2022-11-05T06:13:20.035Z,100.00
2022-11-05T06:15:46.474Z,100.00
2022-11-05T06:18:12.915Z,100.00
2022-11-05T06:20:39.567Z,100.00
2022-11-05T06:23:06.024Z,100.00
2022-11-05T06:25:35.938Z,100.00
2022-11-05T06:28:04.938Z,100.00
2022-11-05T06:30:31.351Z,100.00
2022-11-05T06:33:01.840Z,100.00
2022-11-05T06:35:28.274Z,100.00
2022-11-05T06:37:58.559Z,100.00
2022-11-05T06:40:25.020Z,100.00
2022-11-05T06:42:54.765Z,100.00
2022-11-05T06:45:21.278Z,100.00
2022-11-05T06:47:47.737Z,100.00
2022-11-05T06:50:14.173Z,100.00
2022-11-05T06:52:41.341Z,100.00
2022-11-05T06:55:08.156Z,100.00
2022-11-05T06:57:36.939Z,100.00
2022-11-05T07:00:07.885Z,100.00
2022-11-05T07:02:34.695Z,100.00
2022-11-05T07:05:01.144Z,100.00
2022-11-05T07:07:27.774Z,100.00
2022-11-05T07:09:54.183Z,100.00
2022-11-05T07:12:20.649Z,100.00
2022-11-05T07:14:47.025Z,100.00
2022-11-05T07:17:13.457Z,100.00
2022-11-05T07:19:39.968Z,100.00
2022-11-05T07:22:06.417Z,100.00
2022-11-05T07:24:32.865Z,100.00
2022-11-05T07:26:59.399Z,100.00
2022-11-05T07:29:25.820Z,100.00
2022-11-05T07:31:52.249Z,100.00
2022-11-05T07:34:18.699Z,100.00
2022-11-05T07:36:45.121Z,100.00
2022-11-05T07:39:11.559Z,100.00
2022-11-05T07:41:37.963Z,100.00
2022-11-05T07:44:04.574Z,100.00
2022-11-05T07:46:30.995Z,100.00
2022-11-05T07:48:57.424Z,100.00
2022-11-05T07:51:23.968Z,100.00
2022-11-05T07:53:50.452Z,100.00
2022-11-05T07:56:16.952Z,100.00
2022-11-05T07:58:43.415Z,100.00
2022-11-05T08:01:10.021Z,100.00
2022-11-05T08:03:36.729Z,100.00
2022-11-05T08:06:03.257Z,100.00
2022-11-05T08:08:29.827Z,100.00
2022-11-05T08:11:02.052Z,100.00
2022-11-05T08:13:28.488Z,100.00
2022-11-05T08:15:56.174Z,100.00
2022-11-05T08:18:22.623Z,100.00
2022-11-05T08:20:49.161Z,100.00
2022-11-05T08:23:16.258Z,100.00
2022-11-05T08:25:42.823Z,100.00
2022-11-05T08:28:11.095Z,100.00
2022-11-05T08:30:38.374Z,100.00
2022-11-05T08:33:06.474Z,100.00
2022-11-05T08:35:33.822Z,100.00
2022-11-05T08:38:02.674Z,100.00
2022-11-05T08:40:32.848Z,100.00
2022-11-05T08:43:00.133Z,100.00
2022-11-05T08:45:27.313Z,100.00
2022-11-05T08:48:04.662Z,100.00
2022-11-05T08:50:31.135Z,100.00
2022-11-05T08:52:57.740Z,100.00
2022-11-05T08:55:24.161Z,100.00
2022-11-05T08:57:58.045Z,100.00
2022-11-05T09:02:33.534Z,100.00
2022-11-05T09:05:00.050Z,100.00
2022-11-05T09:07:26.531Z,100.00
2022-11-05T09:09:52.968Z,100.00
2022-11-05T09:12:19.506Z,100.00
2022-11-05T09:14:45.956Z,100.00
2022-11-05T09:17:19.718Z,100.00
2022-11-05T09:19:46.472Z,100.00
2022-11-05T09:22:13.049Z,100.00
2022-11-05T09:24:40.241Z,100.00
2022-11-05T09:27:10.177Z,100.00
2022-11-05T09:29:36.749Z,100.00
2022-11-05T09:32:03.341Z,100.00
2022-11-05T09:34:29.802Z,100.00
2022-11-05T09:36:57.236Z,100.00
2022-11-05T09:39:23.720Z,99.32
2022-11-05T09:41:51.620Z,100.00
2022-11-05T09:44:20.303Z,100.00
2022-11-05T09:47:48.077Z,98.75
2022-11-05T09:50:31.239Z,97.87
2022-11-05T09:52:58.018Z,100.00
2022-11-05T09:55:35.877Z,100.00
2022-11-05T09:58:10.944Z,99.91
2022-11-05T10:00:37.793Z,99.06
2022-11-05T10:03:10.538Z,100.00
2022-11-05T10:05:38.396Z,100.00
2022-11-05T10:08:23.672Z,100.00
2022-11-05T10:10:55.215Z,100.00
2022-11-05T10:13:28.882Z,100.00
2022-11-05T10:16:02.872Z,100.00
2022-11-05T10:18:32.662Z,100.00
2022-11-05T10:20:59.225Z,100.00
2022-11-05T10:23:26.252Z,100.00
2022-11-05T10:25:58.141Z,100.00
2022-11-05T10:28:28.004Z,100.00
2022-11-05T10:31:04.445Z,100.00
2022-11-05T10:33:35.816Z,98.98
2022-11-05T10:36:10.982Z,97.32
2022-11-05T10:38:37.859Z,97.31
2022-11-05T10:41:26.244Z,98.95
2022-11-05T10:44:18.973Z,98.90
2022-11-05T10:47:06.859Z,99.79
2022-11-05T10:49:42.999Z,100.00
2022-11-05T10:52:28.206Z,100.00
2022-11-05T10:54:59.748Z,99.81
2022-11-05T10:57:28.010Z,100.00
2022-11-05T11:00:16.995Z,100.00
2022-11-05T11:02:51.717Z,100.00
2022-11-05T11:05:36.778Z,100.00
2022-11-05T11:08:09.016Z,100.00
2022-11-05T11:10:53.444Z,100.00
2022-11-05T11:13:24.037Z,100.00
2022-11-05T11:32:21.588Z,100.00
2022-11-05T11:34:53.903Z,100.00
2022-11-05T11:37:34.199Z,98.20
2022-11-05T11:40:16.271Z,97.82
2022-11-05T11:42:47.378Z,98.43
2022-11-05T11:45:26.926Z,97.62
2022-11-05T11:47:56.444Z,98.29
2022-11-05T11:50:42.358Z,98.07
2022-11-05T11:53:21.039Z,94.93
2022-11-05T11:56:16.964Z,95.41
2022-11-05T11:58:49.409Z,96.89
2022-11-05T12:01:34.705Z,93.59
2022-11-05T12:04:28.200Z,94.14
2022-11-05T12:07:27.781Z,95.63
2022-11-05T12:10:39.601Z,93.97
2022-11-05T12:13:39.492Z,93.40
2022-11-05T12:16:14.411Z,94.71
2022-11-05T12:19:17.762Z,93.59
2022-11-05T12:22:13.824Z,95.41
2022-11-05T12:24:55.578Z,92.05
2022-11-05T12:28:00.510Z,91.86
2022-11-05T12:30:40.783Z,90.66
2022-11-05T12:33:22.505Z,87.97
2022-11-05T12:35:56.576Z,91.02
2022-11-05T12:38:39.093Z,88.30
2022-11-05T12:41:23.220Z,91.15
2022-11-05T12:44:09.084Z,89.22
2022-11-05T12:46:41.732Z,91.44
2022-11-05T12:49:33.069Z,90.46
2022-11-05T12:52:21.866Z,86.40
2022-11-05T12:55:16.174Z,87.79
2022-11-05T12:57:46.082Z,88.23
2022-11-05T13:00:15.679Z,89.95
2022-11-05T13:02:53.453Z,90.53
2022-11-05T13:05:35.216Z,89.91
2022-11-05T13:08:09.356Z,90.87
2022-11-05T13:10:51.962Z,89.26
2022-11-05T13:13:40.824Z,91.00
2022-11-05T13:16:22.603Z,88.14
2022-11-05T13:18:53.883Z,91.16
2022-11-05T13:21:24.231Z,89.23
2022-11-05T13:24:02.374Z,88.35
2022-11-05T13:26:41.679Z,89.03
2022-11-05T13:29:15.530Z,89.91
2022-11-05T13:31:57.898Z,91.94
2022-11-05T13:34:24.489Z,91.80
2022-11-05T13:37:12.520Z,92.89
2022-11-05T13:39:58.722Z,95.14
2022-11-05T13:43:02.897Z,92.54
2022-11-05T13:45:54.396Z,95.98
2022-11-05T13:49:04.686Z,96.88
2022-11-05T13:51:39.567Z,95.62
2022-11-05T13:54:13.340Z,95.69
2022-11-05T13:57:04.143Z,96.02
2022-11-05T13:59:56.581Z,95.71
2022-11-05T14:02:31.285Z,95.55
2022-11-05T14:05:01.724Z,94.99
2022-11-05T14:07:36.391Z,95.42
2022-11-05T14:10:11.866Z,95.60
2022-11-05T14:12:40.510Z,96.42
2022-11-05T14:15:18.249Z,95.68
2022-11-05T14:18:00.707Z,94.23
2022-11-05T14:20:58.313Z,96.68
2022-11-05T14:23:25.049Z,96.89
2022-11-05T14:25:56.215Z,94.90
2022-11-05T14:28:34.700Z,96.48
2022-11-05T14:31:21.111Z,97.41
2022-11-05T14:34:02.871Z,96.58
2022-11-05T14:36:36.227Z,96.77
2022-11-05T14:39:30.228Z,94.71
2022-11-05T14:42:12.069Z,95.16
2022-11-05T14:45:00.869Z,96.80
2022-11-05T14:47:32.856Z,97.40
2022-11-05T14:50:19.614Z,97.94
2022-11-05T14:52:58.145Z,98.01
2022-11-05T14:55:43.241Z,98.39
2022-11-05T14:58:19.091Z,97.68
2022-11-05T15:00:47.398Z,98.00
2022-11-05T15:03:55.286Z,99.93
2022-11-05T15:06:24.228Z,99.18
2022-11-05T15:08:50.694Z,99.09
2022-11-05T15:11:46.056Z,100.00
2022-11-05T15:14:18.377Z,99.84
2022-11-05T15:16:51.693Z,100.00
2022-11-05T15:19:32.304Z,100.00
2022-11-05T15:22:03.276Z,100.00
2022-11-05T15:24:31.419Z,100.00
2022-11-05T15:27:11.678Z,100.00
2022-11-05T15:29:38.377Z,100.00
2022-11-05T15:32:05.256Z,100.00
2022-11-05T15:34:35.519Z,100.00
2022-11-05T15:37:11.220Z,100.00
2022-11-05T15:39:43.169Z,100.00
2022-11-05T15:42:15.539Z,100.00
2022-11-05T15:44:45.014Z,100.00
2022-11-05T15:47:16.563Z,100.00
2022-11-05T15:49:46.225Z,100.00
2022-11-05T15:52:15.795Z,100.00
2022-11-05T15:54:43.059Z,100.00
2022-11-05T15:57:28.308Z,100.00
2022-11-05T15:59:55.087Z,100.00
2022-11-05T16:02:33.624Z,100.00
2022-11-05T16:05:02.557Z,100.00
2022-11-05T16:07:30.020Z,100.00
2022-11-05T16:09:59.209Z,100.00
2022-11-05T16:12:36.796Z,100.00
2022-11-05T16:15:29.477Z,100.00
2022-11-05T16:17:58.395Z,100.00
2022-11-05T16:20:33.907Z,100.00
2022-11-05T16:23:07.121Z,100.00
2022-11-05T16:25:41.959Z,100.00
2022-11-05T16:28:23.722Z,100.00
2022-11-05T16:30:57.369Z,100.00
2022-11-05T16:33:26.382Z,100.00
2022-11-05T16:35:53.325Z,100.00
2022-11-05T16:38:20.510Z,100.00
2022-11-05T16:40:47.037Z,100.00
2022-11-05T16:43:24.538Z,100.00
2022-11-05T16:45:57.933Z,100.00
2022-11-05T16:48:25.264Z,100.00
2022-11-05T16:50:52.337Z,100.00
2022-11-05T16:53:18.853Z,100.00
2022-11-05T16:55:45.915Z,100.00
2022-11-05T16:58:21.741Z,100.00
2022-11-05T17:00:51.176Z,100.00
2022-11-05T17:03:18.497Z,100.00
2022-11-05T17:05:45.444Z,100.00
2022-11-05T17:08:12.297Z,100.00
2022-11-05T17:10:39.240Z,100.00
2022-11-05T17:13:05.809Z,100.00
2022-11-05T17:15:36.238Z,100.00
2022-11-05T17:18:04.576Z,100.00
2022-11-05T17:20:41.647Z,100.00
2022-11-05T17:23:12.419Z,100.00
2022-11-05T17:25:45.614Z,100.00
2022-11-05T17:28:13.379Z,100.00
2022-11-05T17:30:41.637Z,100.00
2022-11-05T17:33:10.747Z,100.00
2022-11-05T17:35:39.487Z,100.00
2022-11-05T17:38:05.924Z,100.00
2022-11-05T17:40:34.447Z,100.00
2022-11-05T17:43:01.497Z,100.00
2022-11-05T17:45:28.396Z,100.00
2022-11-05T17:47:55.196Z,100.00
2022-11-05T17:50:21.909Z,100.00
2022-11-05T17:52:48.552Z,100.00
2022-11-05T17:55:17.752Z,100.00
2022-11-05T17:57:46.534Z,100.00
2022-11-05T18:00:15.760Z,100.00
2022-11-05T18:02:42.581Z,100.00
2022-11-05T18:05:09.537Z,100.00
2022-11-05T18:07:36.078Z,100.00
2022-11-05T18:10:02.723Z,100.00
2022-11-05T18:12:29.367Z,100.00
2022-11-05T18:14:55.738Z,100.00
2022-11-05T18:17:22.187Z,100.00
2022-11-05T18:22:33.017Z,100.00
2022-11-05T18:24:59.381Z,100.00
2022-11-05T18:27:27.639Z,100.00
2022-11-05T18:29:54.753Z,100.00
2022-11-05T18:32:21.191Z,100.00
2022-11-05T18:34:47.576Z,100.00
2022-11-05T18:37:14.588Z,100.00
2022-11-05T18:39:41.791Z,100.00
2022-11-05T18:42:08.373Z,100.00
2022-11-05T18:44:38.945Z,100.00
2022-11-05T18:47:06.801Z,100.00
2022-11-05T18:49:33.835Z,100.00
2022-11-05T18:52:00.548Z,100.00
2022-11-05T18:54:27.089Z,100.00
2022-11-05T18:56:53.500Z,100.00
2022-11-05T18:59:38.734Z,100.00
2022-11-05T19:02:07.879Z,100.00
2022-11-05T19:04:38.363Z,100.00
2022-11-05T19:07:06.081Z,100.00
2022-11-05T19:09:37.393Z,100.00
2022-11-05T19:12:05.026Z,100.00
2022-11-05T19:14:32.031Z,100.00
2022-11-05T19:16:59.784Z,100.00
2022-11-05T19:19:26.938Z,100.00
2022-11-05T19:21:53.526Z,100.00
2022-11-05T19:24:20.284Z,100.00
2022-11-05T19:26:47.456Z,100.00
2022-11-05T19:29:13.994Z,100.00
2022-11-05T19:31:40.538Z,100.00
2022-11-05T19:34:07.279Z,100.00
2022-11-05T19:36:34.201Z,100.00
2022-11-05T19:39:06.433Z,100.00
2022-11-05T19:41:33.428Z,100.00
2022-11-05T19:44:01.551Z,100.00
2022-11-05T19:46:29.230Z,100.00
2022-11-05T19:48:55.730Z,100.00
2022-11-05T19:51:23.559Z,100.00
2022-11-05T19:53:52.658Z,100.00
2022-11-05T19:56:21.997Z,100.00
2022-11-05T19:58:49.333Z,100.00
2022-11-05T20:01:17.433Z,100.00
2022-11-05T20:03:44.770Z,100.00
2022-11-05T20:06:14.494Z,100.00
2022-11-05T20:08:59.742Z,100.00
2022-11-05T20:11:29.064Z,100.00
2022-11-05T20:13:56.386Z,100.00
2022-11-05T20:16:29.405Z,100.00
2022-11-05T20:18:56.924Z,100.00
2022-11-05T20:21:23.588Z,100.00
2022-11-05T20:23:50.177Z,100.00
2022-11-05T20:26:16.613Z,100.00
2022-11-05T20:28:43.757Z,100.00
2022-11-05T20:31:13.144Z,100.00
2022-11-05T20:33:40.815Z,100.00
2022-11-05T20:36:10.979Z,100.00
2022-11-05T20:38:37.489Z,100.00
2022-11-05T20:41:07.878Z,100.00
2022-11-05T20:43:34.497Z,100.00
2022-11-05T20:46:00.999Z,100.00
2022-11-05T20:48:30.032Z,100.00
2022-11-05T20:50:56.524Z,100.00
2022-11-05T20:53:22.899Z,100.00
2022-11-05T20:55:49.436Z,100.00
2022-11-05T20:58:16.673Z,100.00
2022-11-05T21:00:52.166Z,100.00
2022-11-05T21:03:18.943Z,100.00
2022-11-05T21:05:52.276Z,100.00
2022-11-05T21:08:20.073Z,100.00
2022-11-05T21:10:51.003Z,100.00
2022-11-05T21:13:18.368Z,100.00
2022-11-05T21:15:53.238Z,100.00
2022-11-05T21:18:22.224Z,100.00
2022-11-05T21:20:48.743Z,100.00
2022-11-05T21:23:15.650Z,100.00
2022-11-05T21:25:43.453Z,100.00
2022-11-05T21:28:11.691Z,100.00
2022-11-05T21:30:42.292Z,100.00
2022-11-05T21:33:09.218Z,100.00
2022-11-05T21:35:40.492Z,100.00
2022-11-05T21:38:07.279Z,100.00
2022-11-05T21:40:33.821Z,100.00
2022-11-05T21:43:00.239Z,100.00
2022-11-05T21:45:26.700Z,100.00
2022-11-05T21:47:53.094Z,100.00
2022-11-05T21:50:21.957Z,100.00
2022-11-05T21:53:07.389Z,100.00
2022-11-05T21:55:52.497Z,100.00
2022-11-05T21:58:37.983Z,100.00
2022-11-05T22:01:04.661Z,100.00
2022-11-05T22:03:31.195Z,100.00
2022-11-05T22:05:57.581Z,100.00
2022-11-05T22:08:24.061Z,100.00
2022-11-05T22:10:50.453Z,100.00
2022-11-05T22:13:16.929Z,100.00
2022-11-05T22:15:43.291Z,100.00
2022-11-05T22:18:09.985Z,100.00
2022-11-05T22:20:39.826Z,100.00
2022-11-05T22:23:10.884Z,100.00
2022-11-05T22:25:37.967Z,100.00
2022-11-05T22:28:04.637Z,100.00
2022-11-05T22:30:34.696Z,100.00
2022-11-05T22:33:01.230Z,100.00
2022-11-05T22:35:27.735Z,100.00
2022-11-05T22:37:54.533Z,100.00
2022-11-05T22:40:23.856Z,100.00
2022-11-05T22:42:50.798Z,100.00
2022-11-05T22:45:17.412Z,100.00
2022-11-05T22:47:43.918Z,100.00
2022-11-05T22:50:10.270Z,100.00
2022-11-05T22:52:36.791Z,100.00
2022-11-05T22:55:06.076Z,100.00
2022-11-05T22:57:32.662Z,100.00
2022-11-05T23:17:38.305Z,100.00
2022-11-05T23:20:25.764Z,100.00
2022-11-05T23:23:10.878Z,100.00
2022-11-05T23:25:37.460Z,100.00
2022-11-05T23:28:07.497Z,100.00
2022-11-05T23:30:34.144Z,100.00
2022-11-05T23:33:00.695Z,100.00
2022-11-05T23:35:46.366Z,100.00
2022-11-05T23:38:31.461Z,100.00
2022-11-05T23:41:20.640Z,100.00
2022-11-05T23:44:05.898Z,100.00
2022-11-05T23:46:55.778Z,100.00
2022-11-05T23:49:22.494Z,100.00
2022-11-05T23:51:49.322Z,100.00
2022-11-05T23:54:16.054Z,100.00
2022-11-05T23:56:42.631Z,100.00
2022-11-05T23:59:09.590Z,100.00
